This is the latest recevied weather packets stored in our database for station/object KC1OEK-13. If no packets are shown the sender has not sent any weather packets the latest 10 day(s).
| Time | Temp. | Humidity | Pressure | Rain* | Wind** | Luminosity | Snow |
|---|---|---|---|---|---|---|---|
| 1787948985 | 27.78° C | 65% | 1018.3 hPa | 0 mm | - | 377 W/m² | - |
| 1787948681 | 27.22° C | 67% | 1018.2 hPa | 0 mm | - | 394 W/m² | - |
| 1787948377 | 27.22° C | 66% | 1018.3 hPa | 0 mm | - | 176 W/m² | - |
| 1787948076 | 28.33° C | 65% | 1018.3 hPa | 0 mm | - | 193 W/m² | - |
| 1787947776 | 27.78° C | 64% | 1018.2 hPa | 0 mm | - | 473 W/m² | - |
| 1787947469 | 28.33° C | 63% | 1018.4 hPa | 0 mm | - | 455 W/m² | - |
| 1787947169 | 27.22° C | 66% | 1018.4 hPa | 0 mm | - | 447 W/m² | - |
| 1787946863 | 27.78° C | 65% | 1018.3 hPa | 0 mm | - | 441 W/m² | - |
| 1787946561 | 28.89° C | 63% | 1018.5 hPa | 0 mm | - | 485 W/m² | - |
| 1787946257 | 28.89° C | 63% | 1018.3 hPa | 0 mm | - | 504 W/m² | - |
| 1787945956 | 28.89° C | 62% | 1018.4 hPa | 0 mm | - | 504 W/m² | - |
| 1787945651 | 28.89° C | 62% | 1018.4 hPa | 0 mm | - | 526 W/m² | - |
| 1787945345 | 29.44° C | 62% | 1018.4 hPa | 0 mm | - | 566 W/m² | - |
| 1787945041 | 28.89° C | 65% | 1018.3 hPa | 0 mm | - | 595 W/m² | - |
| 1787944738 | 28.33° C | 67% | 1018.3 hPa | 0 mm | - | 578 W/m² | - |
| 1787944434 | 28.33° C | 64% | 1018.3 hPa | 0 mm | - | 551 W/m² | - |
| 1787944129 | 28.33° C | 68% | 1018.2 hPa | 0 mm | - | 557 W/m² | - |
| 1787943824 | 27.78° C | 66% | 1018.4 hPa | 0 mm | - | 572 W/m² | - |
| 1787943519 | 27.78° C | 69% | 1018.3 hPa | 0 mm | - | 641 W/m² | - |
| 1787943214 | 27.78° C | 69% | 1018.3 hPa | 0 mm | - | 236 W/m² | - |
| 1787942913 | 29.44° C | 65% | 1018.2 hPa | 0 mm | - | 179 W/m² | - |
| 1787942610 | 28.33° C | 63% | 1018.5 hPa | 0 mm | - | 712 W/m² | - |
| 1787942309 | 27.22° C | 70% | 1018.5 hPa | 0 mm | - | 237 W/m² | - |
| 1787942004 | 27.22° C | 68% | 1018.4 hPa | 0 mm | - | 257 W/m² | - |
| 1787941699 | 27.78° C | 68% | 1018.5 hPa | 0 mm | - | 274 W/m² | - |
* Rain latest hour (hover to see other rain measurements)
** Current wind speed in m/s (hover to see current wind gust speed)